Time;durP1;ratioP1;P1;durP2;ratioP2;P2;SDS_P1;SDS_P2;PMS_P1;PMS_P2;Temp;Humidity;BMP_temperature;BMP_pressure;BME280_temperature;BME280_humidity;BME280_pressure;Samples;Min_cycle;Max_cycle;Signal;HPM_P1;HPM_P2
2022/04/08 00:00:02;;;;;;;;;;;;;;;11.07;100.00;96145.13;5072995;28;19971;-74
2022/04/08 00:02:29;;;;;;;;;;;;;;;11.23;100.00;96143.59;5075037;28;20016;-75
2022/04/08 00:04:57;;;;;;;;;;;;;;;11.35;100.00;96130.44;5077467;28;19947;-75
2022/04/08 00:07:24;;;;;;;;;;;;;;;11.15;100.00;96137.13;5075288;28;20186;-75
2022/04/08 00:09:51;;;;;;;;;;;;;;;11.17;100.00;96140.25;5073786;28;19936;-75
2022/04/08 00:12:17;;;;;;;;;;;;;;;11.22;100.00;96140.16;5073798;28;19925;-75
2022/04/08 00:14:43;;;;;;;;;;;;;;;11.16;100.00;96140.59;5073686;28;19925;-75
2022/04/08 00:17:10;;;;;;;;;;;;;;;11.01;100.00;96138.34;5072077;28;19959;-75
2022/04/08 00:19:37;;;;;;;;;;;;;;;11.10;100.00;96144.50;5076150;28;19936;-75
2022/04/08 00:22:05;;;;;;;;;;;;;;;11.11;100.00;96156.75;5077303;28;19959;-75
2022/04/08 00:24:33;;;;;;;;;;;;;;;11.15;100.00;96152.34;5075240;28;19925;-75
2022/04/08 00:26:59;;;;;;;;;;;;;;;10.93;100.00;96149.75;5073680;28;19921;-75
2022/04/08 00:29:26;;;;;;;;;;;;;;;11.04;100.00;96153.75;5074707;28;19925;-75
2022/04/08 00:31:57;;;;;;;;;;;;;;;10.99;100.00;96143.97;5077396;28;19924;-75
2022/04/08 00:34:24;;;;;;;;;;;;;;;11.04;100.00;96151.06;5076073;28;20020;-75
2022/04/08 00:36:50;;;;;;;;;;;;;;;11.00;100.00;96152.78;5072204;28;20271;-75
2022/04/08 00:39:17;;;;;;;;;;;;;;;11.01;100.00;96155.16;5072285;28;19925;-75
2022/04/08 00:41:44;;;;;;;;;;;;;;;10.73;100.00;96151.88;5076678;28;19924;-75
2022/04/08 00:44:11;;;;;;;;;;;;;;;10.66;100.00;96172.88;5072403;28;19959;-75
2022/04/08 00:46:38;;;;;;;;;;;;;;;10.68;100.00;96169.88;5074391;28;19936;-75
2022/04/08 00:49:04;;;;;;;;;;;;;;;10.62;100.00;96161.22;5073391;28;19925;-74
2022/04/08 00:51:31;;;;;;;;;;;;;;;10.80;100.00;96172.78;5073670;28;19932;-74
2022/04/08 00:53:58;;;;;;;;;;;;;;;10.72;100.00;96176.19;5076932;28;19928;-74
2022/04/08 00:56:25;;;;;;;;;;;;;;;10.68;100.00;96178.69;5075835;28;19925;-74
2022/04/08 00:58:55;;;;;;;;;;;;;;;10.54;100.00;96191.31;5073405;28;19947;-75
2022/04/08 01:01:23;;;;;;;;;;;;;;;10.47;100.00;96201.63;5074831;28;19924;-75
2022/04/08 01:03:52;;;;;;;;;;;;;;;10.57;100.00;96209.41;5080852;28;20012;-75
2022/04/08 01:06:18;;;;;;;;;;;;;;;10.52;100.00;96208.75;5080370;28;19925;-75
2022/04/08 01:08:45;;;;;;;;;;;;;;;10.63;100.00;96212.72;5068823;28;19939;-75
2022/04/08 01:11:11;;;;;;;;;;;;;;;10.61;100.00;96212.25;5075462;28;19924;-75
2022/04/08 01:13:38;;;;;;;;;;;;;;;10.60;100.00;96221.34;5080348;28;19952;-75
2022/04/08 01:16:07;;;;;;;;;;;;;;;10.76;100.00;96214.53;5075593;28;20280;-74
2022/04/08 01:18:33;;;;;;;;;;;;;;;10.60;100.00;96211.47;5078926;28;19947;-74
2022/04/08 01:21:03;;;;;;;;;;;;;;;10.64;100.00;96217.78;5080488;28;19963;-74
2022/04/08 01:23:30;;;;;;;;;;;;;;;10.68;100.00;96226.72;5078921;28;19988;-75
2022/04/08 01:25:58;;;;;;;;;;;;;;;10.83;100.00;96226.34;5076784;28;20512;-75
2022/04/08 01:28:25;;;;;;;;;;;;;;;10.89;100.00;96231.59;5077487;28;19975;-74
2022/04/08 01:30:51;;;;;;;;;;;;;;;10.80;100.00;96236.84;5079986;28;19925;-74
2022/04/08 01:33:18;;;;;;;;;;;;;;;10.67;100.00;96230.50;5078659;28;19950;-74
2022/04/08 01:35:44;;;;;;;;;;;;;;;10.61;100.00;96238.94;5068391;28;19967;-74
2022/04/08 01:38:11;;;;;;;;;;;;;;;10.40;100.00;96243.94;5076866;28;19948;-74
2022/04/08 01:40:37;;;;;;;;;;;;;;;10.43;100.00;96243.34;5079151;28;19963;-74
2022/04/08 01:43:05;;;;;;;;;;;;;;;10.31;100.00;96248.44;5075147;28;19951;-73
2022/04/08 01:45:31;;;;;;;;;;;;;;;10.27;100.00;96247.47;5079695;28;19925;-74
2022/04/08 01:47:57;;;;;;;;;;;;;;;10.42;100.00;96249.78;5081222;28;20019;-74
2022/04/08 01:50:24;;;;;;;;;;;;;;;10.47;100.00;96255.00;5079655;28;19924;-74
2022/04/08 01:52:50;;;;;;;;;;;;;;;10.48;100.00;96261.94;5075917;28;19951;-74
2022/04/08 01:55:18;;;;;;;;;;;;;;;10.40;100.00;96249.28;5076828;28;19925;-74
2022/04/08 01:57:44;;;;;;;;;;;;;;;10.40;100.00;96249.28;5067007;28;19952;-74
2022/04/08 02:00:13;;;;;;;;;;;;;;;10.27;100.00;96261.56;5075075;28;19971;-74
2022/04/08 02:02:40;;;;;;;;;;;;;;;10.26;100.00;96261.88;5078679;28;19967;-74
2022/04/08 02:05:07;;;;;;;;;;;;;;;10.34;100.00;96268.41;5079723;28;19931;-74
2022/04/08 02:07:33;;;;;;;;;;;;;;;10.26;100.00;96264.56;5076362;28;19970;-74
2022/04/08 02:09:59;;;;;;;;;;;;;;;10.26;100.00;96277.88;5075813;28;19935;-73
2022/04/08 02:12:26;;;;;;;;;;;;;;;10.25;100.00;96273.63;5073860;28;19928;-74
2022/04/08 02:14:54;;;;;;;;;;;;;;;10.12;100.00;96269.13;5076157;28;19971;-74
2022/04/08 02:17:25;;;;;;;;;;;;;;;10.03;100.00;96276.22;5075956;28;19935;-74
2022/04/08 02:19:51;;;;;;;;;;;;;;;10.14;97.96;96294.41;5078071;28;19992;-74
2022/04/08 02:22:18;;;;;;;;;;;;;;;10.24;96.72;96286.19;5079752;28;19928;-75
2022/04/08 02:24:46;;;;;;;;;;;;;;;10.12;96.03;96291.22;5075704;28;19925;-74
2022/04/08 02:27:13;;;;;;;;;;;;;;;10.02;95.83;96296.78;5075722;28;20231;-74
2022/04/08 02:29:39;;;;;;;;;;;;;;;10.04;92.34;96291.94;5076858;28;20038;-74
2022/04/08 02:32:06;;;;;;;;;;;;;;;10.10;93.84;96295.28;5078987;28;19926;-74
2022/04/08 02:34:36;;;;;;;;;;;;;;;10.14;89.68;96293.63;5078061;28;19967;-74
2022/04/08 02:37:03;;;;;;;;;;;;;;;10.04;92.98;96297.25;5075735;28;19928;-74
2022/04/08 02:39:29;;;;;;;;;;;;;;;10.02;90.65;96307.44;5076823;28;20095;-74
2022/04/08 02:41:57;;;;;;;;;;;;;;;10.01;91.51;96305.06;5077587;28;19995;-75
2022/04/08 02:44:23;;;;;;;;;;;;;;;10.16;91.69;96312.78;5075971;28;19932;-75
2022/04/08 02:46:49;;;;;;;;;;;;;;;10.07;91.96;96310.00;5078625;28;19928;-73
2022/04/08 02:49:16;;;;;;;;;;;;;;;10.16;91.50;96310.13;5077957;28;19963;-74
2022/04/08 02:51:43;;;;;;;;;;;;;;;10.11;91.61;96312.88;5075177;28;19964;-73
2022/04/08 02:54:10;;;;;;;;;;;;;;;9.98;91.92;96306.47;5074072;28;19952;-73
2022/04/08 02:56:39;;;;;;;;;;;;;;;9.96;90.95;96313.97;5076374;28;19935;-72
2022/04/08 02:59:05;;;;;;;;;;;;;;;10.18;89.92;96315.97;5078620;28;19925;-74
2022/04/08 03:01:31;;;;;;;;;;;;;;;10.08;90.85;96316.13;5077133;28;19934;-74
2022/04/08 03:03:58;;;;;;;;;;;;;;;9.88;88.61;96332.50;5075221;28;19928;-74
2022/04/08 03:06:26;;;;;;;;;;;;;;;9.83;89.31;96325.44;5075764;28;19976;-74
2022/04/08 03:08:53;;;;;;;;;;;;;;;9.93;87.81;96341.22;5077172;28;19943;-74
2022/04/08 03:11:20;;;;;;;;;;;;;;;10.00;88.63;96348.81;5078243;28;19931;-74
2022/04/08 03:13:46;;;;;;;;;;;;;;;9.89;86.01;96350.91;5070608;28;19924;-74
2022/04/08 03:16:12;;;;;;;;;;;;;;;9.72;86.75;96351.47;5078412;28;19924;-74
2022/04/08 03:18:39;;;;;;;;;;;;;;;10.06;87.61;96360.94;5075311;28;19987;-74
2022/04/08 03:21:05;;;;;;;;;;;;;;;9.78;86.25;96350.28;5074834;28;20265;-75
2022/04/08 03:23:31;;;;;;;;;;;;;;;9.97;85.29;96362.72;5074432;28;19998;-74
2022/04/08 03:25:59;;;;;;;;;;;;;;;9.88;86.04;96351.97;5077667;28;19935;-74
2022/04/08 03:28:26;;;;;;;;;;;;;;;9.89;83.78;96350.91;5077081;28;19955;-75
2022/04/08 03:30:53;;;;;;;;;;;;;;;9.87;85.01;96362.94;5074430;28;19925;-75
2022/04/08 03:33:20;;;;;;;;;;;;;;;9.86;85.78;96366.69;5072898;28;20207;-74
2022/04/08 03:35:46;;;;;;;;;;;;;;;10.00;86.79;96362.94;5077730;28;20324;-73
2022/04/08 03:38:12;;;;;;;;;;;;;;;9.94;84.79;96358.00;5077456;28;19951;-73
2022/04/08 03:40:39;;;;;;;;;;;;;;;9.55;83.29;96351.25;5074574;28;19955;-75
2022/04/08 03:43:06;;;;;;;;;;;;;;;9.59;84.04;96357.56;5069328;28;19925;-74
2022/04/08 03:45:33;;;;;;;;;;;;;;;9.65;85.05;96371.63;5075543;28;19925;-74
2022/04/08 03:47:59;;;;;;;;;;;;;;;9.61;83.76;96366.06;5077511;28;19924;-74
2022/04/08 03:50:26;;;;;;;;;;;;;;;9.54;82.46;96373.66;5076569;28;19964;-73
2022/04/08 03:52:52;;;;;;;;;;;;;;;9.70;84.05;96369.63;5072341;28;19925;-73
2022/04/08 03:55:18;;;;;;;;;;;;;;;9.60;83.67;96369.03;5073677;28;19951;-73
2022/04/08 03:57:45;;;;;;;;;;;;;;;9.54;84.19;96365.66;5064007;28;19931;-73
2022/04/08 04:00:13;;;;;;;;;;;;;;;9.81;85.04;96375.56;5073390;28;19951;-73
2022/04/08 04:02:39;;;;;;;;;;;;;;;9.75;83.33;96393.53;5076344;28;19967;-74
2022/04/08 04:05:06;;;;;;;;;;;;;;;9.76;85.08;96389.78;5076749;28;20159;-74
2022/04/08 04:07:33;;;;;;;;;;;;;;;9.83;85.10;96391.28;5074892;28;19924;-74
2022/04/08 04:09:59;;;;;;;;;;;;;;;9.72;85.59;96388.78;5073912;28;20011;-74
2022/04/08 04:12:27;;;;;;;;;;;;;;;9.42;87.68;96389.31;5075072;28;20228;-74
2022/04/08 04:14:53;;;;;;;;;;;;;;;9.53;88.58;96401.38;5077664;28;19924;-74
2022/04/08 04:17:21;;;;;;;;;;;;;;;9.82;88.93;96411.00;5076995;28;19946;-74
2022/04/08 04:19:47;;;;;;;;;;;;;;;9.83;88.57;96409.94;5073498;28;20000;-75
2022/04/08 04:22:14;;;;;;;;;;;;;;;9.88;87.84;96413.28;5073574;28;20007;-75
2022/04/08 04:24:40;;;;;;;;;;;;;;;9.51;90.45;96416.09;5076191;28;19995;-75
2022/04/08 04:27:06;;;;;;;;;;;;;;;9.44;92.23;96416.44;5076685;28;19985;-74
2022/04/08 04:29:33;;;;;;;;;;;;;;;9.67;91.79;96430.75;5075089;28;19963;-75
2022/04/08 04:31:59;;;;;;;;;;;;;;;9.46;92.68;96427.63;5073367;28;19929;-75
2022/04/08 04:34:27;;;;;;;;;;;;;;;9.65;92.46;96435.59;5072791;28;19974;-75
2022/04/08 04:36:53;;;;;;;;;;;;;;;9.51;92.80;96437.41;5076563;28;19984;-75
2022/04/08 04:39:20;;;;;;;;;;;;;;;9.36;94.29;96432.31;5075442;28;19924;-75
2022/04/08 04:41:46;;;;;;;;;;;;;;;9.43;94.64;96454.84;5071918;28;19925;-75
2022/04/08 04:44:12;;;;;;;;;;;;;;;9.45;94.04;96439.34;5073586;28;19932;-75
2022/04/08 04:46:39;;;;;;;;;;;;;;;9.45;94.20;96454.56;5076340;28;19963;-75
2022/04/08 04:49:05;;;;;;;;;;;;;;;9.47;93.95;96466.50;5077511;28;19924;-75
2022/04/08 04:51:33;;;;;;;;;;;;;;;9.46;94.28;96474.78;5075225;28;19928;-75
2022/04/08 04:53:59;;;;;;;;;;;;;;;9.38;94.70;96473.56;5072013;28;19996;-75
2022/04/08 04:56:26;;;;;;;;;;;;;;;9.45;94.03;96473.19;5072595;28;19925;-74
2022/04/08 04:58:52;;;;;;;;;;;;;;;9.32;93.40;96480.06;5076400;28;19924;-75
2022/04/08 05:01:19;;;;;;;;;;;;;;;9.56;93.99;96471.97;5076517;28;19995;-74
2022/04/08 05:03:45;;;;;;;;;;;;;;;9.18;93.99;96481.88;5063729;28;19988;-74
2022/04/08 05:06:12;;;;;;;;;;;;;;;9.50;93.65;96483.81;5072894;28;19925;-75
2022/04/08 05:08:39;;;;;;;;;;;;;;;9.42;92.57;96485.22;5074062;28;19925;-75
2022/04/08 05:11:06;;;;;;;;;;;;;;;9.54;92.05;96493.56;5075139;28;19925;-75
2022/04/08 05:13:32;;;;;;;;;;;;;;;9.50;92.85;96499.78;5074634;28;19963;-75
2022/04/08 05:15:59;;;;;;;;;;;;;;;9.38;91.56;96497.53;5073239;28;19935;-74
2022/04/08 05:18:25;;;;;;;;;;;;;;;9.25;91.26;96492.97;5073607;28;19986;-74
2022/04/08 05:20:52;;;;;;;;;;;;;;;9.38;91.18;96510.88;5078970;28;19935;-74
2022/04/08 05:23:18;;;;;;;;;;;;;;;9.27;90.91;96493.47;5077112;28;19924;-74
2022/04/08 05:25:46;;;;;;;;;;;;;;;9.36;90.13;96506.91;5064338;28;20428;-73
2022/04/08 05:28:13;;;;;;;;;;;;;;;9.25;89.68;96518.81;5074094;28;20217;-74
2022/04/08 05:30:39;;;;;;;;;;;;;;;9.35;89.17;96510.66;5076157;28;19928;-75
2022/04/08 05:33:06;;;;;;;;;;;;;;;9.32;89.05;96512.03;5076902;28;19925;-74
2022/04/08 05:35:32;;;;;;;;;;;;;;;9.47;88.46;96519.03;5075117;28;19935;-74
2022/04/08 05:37:59;;;;;;;;;;;;;;;9.33;89.06;96529.59;5074215;28;20656;-74
2022/04/08 05:40:25;;;;;;;;;;;;;;;9.50;87.98;96519.22;5074075;28;19925;-74
2022/04/08 05:42:53;;;;;;;;;;;;;;;9.53;88.46;96523.97;5077247;28;19979;-74
2022/04/08 05:45:21;;;;;;;;;;;;;;;9.71;87.72;96523.16;5075336;28;19928;-75
2022/04/08 05:47:49;;;;;;;;;;;;;;;9.90;87.71;96514.34;5066844;28;20117;-75
2022/04/08 05:50:16;;;;;;;;;;;;;;;10.05;87.84;96524.75;5076543;28;19964;-74
2022/04/08 05:52:43;;;;;;;;;;;;;;;9.73;87.30;96520.19;5078109;28;19929;-74
2022/04/08 05:55:10;;;;;;;;;;;;;;;9.83;88.19;96524.59;5078692;28;20412;-76
2022/04/08 05:57:36;;;;;;;;;;;;;;;10.06;87.95;96521.78;5077499;28;19924;-74
2022/04/08 06:00:05;;;;;;;;;;;;;;;9.83;87.96;96521.91;5075032;28;19996;-75
2022/04/08 06:02:31;;;;;;;;;;;;;;;9.62;89.52;96532.88;5077441;28;19952;-75
2022/04/08 06:04:57;;;;;;;;;;;;;;;9.41;91.11;96536.16;5079397;28;20599;-75
2022/04/08 06:07:25;;;;;;;;;;;;;;;9.57;90.38;96538.28;5078627;28;19964;-75
2022/04/08 06:09:51;;;;;;;;;;;;;;;9.50;90.42;96534.44;5076117;28;19924;-74
2022/04/08 06:12:18;;;;;;;;;;;;;;;9.69;92.04;96546.63;5074747;28;19981;-74
2022/04/08 06:14:44;;;;;;;;;;;;;;;9.70;90.97;96537.56;5078555;28;19931;-75
2022/04/08 06:17:12;;;;;;;;;;;;;;;9.50;92.22;96545.84;5078437;28;19984;-76
2022/04/08 06:19:38;;;;;;;;;;;;;;;9.53;92.46;96547.94;5076206;28;19962;-74
2022/04/08 06:22:05;;;;;;;;;;;;;;;9.56;92.98;96549.25;5076683;28;19928;-75
2022/04/08 06:24:31;;;;;;;;;;;;;;;9.87;90.95;96550.38;5078016;28;19925;-75
2022/04/08 06:26:58;;;;;;;;;;;;;;;9.90;90.02;96549.00;5079522;28;19955;-74
2022/04/08 06:29:24;;;;;;;;;;;;;;;9.86;91.51;96548.00;5077981;28;19924;-75
2022/04/08 06:31:51;;;;;;;;;;;;;;;9.55;92.47;96539.69;5076156;28;19967;-74
2022/04/08 06:34:18;;;;;;;;;;;;;;;9.88;91.52;96545.81;5076023;28;19959;-74
2022/04/08 06:36:45;;;;;;;;;;;;;;;9.86;90.31;96564.78;5079127;28;20019;-74
2022/04/08 06:39:11;;;;;;;;;;;;;;;9.89;90.16;96560.75;5078234;28;19924;-74
2022/04/08 06:41:37;;;;;;;;;;;;;;;9.98;90.05;96567.00;5075281;28;20377;-74
2022/04/08 06:44:04;;;;;;;;;;;;;;;10.04;90.86;96571.16;5074206;28;19955;-75
2022/04/08 06:46:30;;;;;;;;;;;;;;;9.89;90.71;96561.53;5076865;28;19935;-75
2022/04/08 06:49:02;;;;;;;;;;;;;;;10.05;89.49;96567.41;5081892;28;19920;-74
2022/04/08 06:51:30;;;;;;;;;;;;;;;10.03;88.86;96567.69;5077035;28;19988;-74
2022/04/08 06:53:57;;;;;;;;;;;;;;;10.11;88.58;96568.91;5079178;28;19924;-74
2022/04/08 06:56:23;;;;;;;;;;;;;;;10.04;88.92;96574.63;5078549;28;19936;-75
2022/04/08 06:58:50;;;;;;;;;;;;;;;10.12;88.82;96559.84;5075055;28;19945;-75
2022/04/08 07:01:16;;;;;;;;;;;;;;;10.06;88.58;96559.09;5074978;28;19925;-75
2022/04/08 07:03:43;;;;;;;;;;;;;;;10.02;88.96;96557.34;5078252;28;19924;-75
2022/04/08 07:06:09;;;;;;;;;;;;;;;9.96;90.31;96555.84;5077289;28;20049;-75
2022/04/08 07:08:37;;;;;;;;;;;;;;;10.02;89.89;96558.13;5075815;28;19951;-75
2022/04/08 07:11:04;;;;;;;;;;;;;;;10.03;90.81;96556.22;5074719;28;20027;-75
2022/04/08 07:13:30;;;;;;;;;;;;;;;9.83;91.70;96554.69;5071402;28;19952;-75
2022/04/08 07:15:57;;;;;;;;;;;;;;;10.12;89.95;96546.50;5077700;28;19987;-75
2022/04/08 07:18:23;;;;;;;;;;;;;;;10.08;89.32;96553.50;5077331;28;19924;-75
2022/04/08 07:20:50;;;;;;;;;;;;;;;9.82;92.53;96552.31;5074534;28;19960;-74
2022/04/08 07:23:16;;;;;;;;;;;;;;;9.96;91.14;96558.50;5074272;28;19948;-75
2022/04/08 07:25:44;;;;;;;;;;;;;;;10.04;91.33;96547.16;5077370;28;19951;-74
2022/04/08 07:28:11;;;;;;;;;;;;;;;10.03;93.15;96564.22;5076347;28;19970;-75
2022/04/08 07:30:37;;;;;;;;;;;;;;;10.24;91.59;96552.97;5073900;28;19928;-74
2022/04/08 07:33:04;;;;;;;;;;;;;;;10.08;92.54;96554.28;5072352;28;19979;-75
2022/04/08 07:35:33;;;;;;;;;;;;;;;10.08;92.63;96542.84;5074147;28;19929;-75
2022/04/08 07:38:00;;;;;;;;;;;;;;;10.40;90.04;96564.16;5076101;28;19936;-75
2022/04/08 07:40:26;;;;;;;;;;;;;;;10.18;90.40;96548.03;5075310;28;19933;-74
2022/04/08 07:42:54;;;;;;;;;;;;;;;10.12;90.89;96541.19;5073563;28;19924;-75
2022/04/08 07:45:24;;;;;;;;;;;;;;;10.42;89.10;96545.19;5077163;28;19983;-75
2022/04/08 07:47:50;;;;;;;;;;;;;;;10.30;88.81;96537.69;5073955;28;19988;-75
2022/04/08 07:50:17;;;;;;;;;;;;;;;10.24;89.57;96528.94;5072430;28;19925;-75
2022/04/08 07:52:43;;;;;;;;;;;;;;;10.33;90.15;96530.97;5076033;28;19925;-76
2022/04/08 07:55:10;;;;;;;;;;;;;;;10.38;88.34;96528.97;5077454;28;19973;-75
2022/04/08 07:57:43;;;;;;;;;;;;;;;10.54;88.90;96524.94;5075107;28;19936;-75
2022/04/08 08:00:13;;;;;;;;;;;;;;;10.36;86.69;96530.38;5074303;28;20435;-75
2022/04/08 08:02:39;;;;;;;;;;;;;;;10.11;87.04;96516.38;5075218;28;19925;-75
2022/04/08 08:05:06;;;;;;;;;;;;;;;10.25;86.53;96522.53;5076664;28;19935;-73
2022/04/08 08:07:43;;;;;;;;;;;;;;;10.13;85.69;96522.22;5076135;28;19925;-75
2022/04/08 08:10:09;;;;;;;;;;;;;;;10.45;85.09;96518.72;5074240;28;19964;-75
2022/04/08 08:12:36;;;;;;;;;;;;;;;10.37;85.88;96514.06;5073923;28;19924;-75
2022/04/08 08:15:02;;;;;;;;;;;;;;;10.22;84.72;96530.34;5074451;28;19924;-75
2022/04/08 08:17:30;;;;;;;;;;;;;;;10.33;83.02;96514.94;5074282;28;19992;-75
2022/04/08 08:19:57;;;;;;;;;;;;;;;10.45;79.88;96521.38;5076185;28;19995;-75
2022/04/08 08:22:23;;;;;;;;;;;;;;;10.43;81.34;96509.44;5072169;28;19924;-75
2022/04/08 08:24:50;;;;;;;;;;;;;;;10.58;78.33;96509.94;5077233;28;19924;-75
2022/04/08 08:27:16;;;;;;;;;;;;;;;10.51;77.95;96517.53;5077297;28;19920;-74
2022/04/08 08:29:42;;;;;;;;;;;;;;;10.65;77.18;96507.63;5074081;28;19970;-75
2022/04/08 08:32:09;;;;;;;;;;;;;;;10.65;75.86;96507.63;5073435;28;19979;-74
2022/04/08 08:34:37;;;;;;;;;;;;;;;10.35;76.48;96513.56;5075228;28;20011;-75
2022/04/08 08:37:03;;;;;;;;;;;;;;;10.41;78.74;96491.03;5076803;28;19928;-75
2022/04/08 08:39:29;;;;;;;;;;;;;;;10.47;78.10;96494.38;5075614;28;19925;-74
2022/04/08 08:41:56;;;;;;;;;;;;;;;10.29;77.51;96493.41;5071943;28;20000;-74
2022/04/08 08:44:22;;;;;;;;;;;;;;;10.18;76.76;96492.78;5071906;28;19987;-75
2022/04/08 08:46:49;;;;;;;;;;;;;;;10.36;76.38;96493.00;5073009;28;19968;-73
2022/04/08 08:49:18;;;;;;;;;;;;;;;10.33;76.45;96493.59;5071971;28;19925;-74
2022/04/08 08:51:51;;;;;;;;;;;;;;;10.63;74.64;96488.47;5076317;28;19935;-74
2022/04/08 08:54:17;;;;;;;;;;;;;;;10.76;69.26;96487.69;5076417;28;19971;-74
2022/04/08 08:56:44;;;;;;;;;;;;;;;10.62;69.44;96488.75;5071807;28;19984;-73
2022/04/08 08:59:11;;;;;;;;;;;;;;;10.44;72.27;96489.66;5072928;28;19928;-73
2022/04/08 09:01:37;;;;;;;;;;;;;;;10.76;69.04;96495.69;5075283;28;19935;-73
2022/04/08 09:04:05;;;;;;;;;;;;;;;10.76;66.17;96481.53;5075674;28;19927;-73
2022/04/08 09:06:39;;;;;;;;;;;;;;;10.48;71.10;96480.75;5075987;28;19984;-73
2022/04/08 09:09:07;;;;;;;;;;;;;;;10.83;69.36;96485.38;5073910;28;20012;-73
2022/04/08 09:11:34;;;;;;;;;;;;;;;10.88;66.42;96478.34;5075798;28;20393;-73
2022/04/08 09:14:02;;;;;;;;;;;;;;;11.00;68.25;96482.09;5071915;28;19928;-73
2022/04/08 09:16:29;;;;;;;;;;;;;;;11.03;67.48;96481.50;5075644;28;19924;-73
2022/04/08 09:18:56;;;;;;;;;;;;;;;10.70;73.10;96477.41;5073116;28;19924;-73
2022/04/08 09:21:23;;;;;;;;;;;;;;;10.81;77.97;96484.91;5073116;28;19935;-73
2022/04/08 09:23:49;;;;;;;;;;;;;;;10.80;80.52;96483.31;5080473;28;19928;-73
2022/04/08 09:26:17;;;;;;;;;;;;;;;10.97;79.68;96480.03;5080950;28;20293;-74
2022/04/08 09:28:44;;;;;;;;;;;;;;;10.96;80.15;96474.97;5076736;28;19957;-74
2022/04/08 09:31:16;;;;;;;;;;;;;;;10.56;86.87;96466.72;5077393;28;19925;-73
2022/04/08 09:33:47;;;;;;;;;;;;;;;10.55;89.93;96467.78;5078288;28;19924;-73
2022/04/08 09:36:14;;;;;;;;;;;;;;;10.83;89.40;96474.69;5079883;28;19924;-73
2022/04/08 09:38:48;;;;;;;;;;;;;;;10.75;88.72;96459.38;5077247;28;19924;-73
2022/04/08 09:41:15;;;;;;;;;;;;;;;10.44;90.00;96458.41;5075491;28;19936;-73
2022/04/08 09:43:43;;;;;;;;;;;;;;;10.48;92.04;96467.41;5074394;28;19928;-73
2022/04/08 09:46:13;;;;;;;;;;;;;;;10.69;90.29;96455.25;5078578;28;19966;-74
2022/04/08 09:48:41;;;;;;;;;;;;;;;10.56;91.10;96456.03;5075827;28;19946;-75
2022/04/08 09:51:09;;;;;;;;;;;;;;;10.69;92.74;96465.91;5075475;28;19980;-74
2022/04/08 09:53:36;;;;;;;;;;;;;;;10.60;92.32;96451.69;5078103;28;19931;-74
2022/04/08 09:56:04;;;;;;;;;;;;;;;10.84;93.22;96452.25;5078478;28;19928;-74
2022/04/08 09:58:33;;;;;;;;;;;;;;;10.98;92.74;96448.75;5078247;28;19931;-74
2022/04/08 10:01:01;;;;;;;;;;;;;;;10.71;97.19;96444.25;5075892;28;19925;-74
2022/04/08 10:03:27;;;;;;;;;;;;;;;10.48;100.00;96447.94;5076345;28;19925;-74
2022/04/08 10:05:54;;;;;;;;;;;;;;;10.61;100.00;96450.63;5079463;28;19924;-75
2022/04/08 10:08:21;;;;;;;;;;;;;;;10.65;100.00;96448.13;5079818;28;19963;-74
2022/04/08 10:10:51;;;;;;;;;;;;;;;10.72;100.00;96446.63;5074636;28;19979;-74
2022/04/08 10:13:32;;;;;;;;;;;;;;;10.75;100.00;96437.22;5070919;28;20291;-74
2022/04/08 10:16:06;;;;;;;;;;;;;;;10.76;100.00;96431.59;5069731;28;19932;-72
2022/04/08 10:18:36;;;;;;;;;;;;;;;10.60;100.00;96424.22;5078555;28;20073;-72
2022/04/08 10:21:02;;;;;;;;;;;;;;;10.66;100.00;96412.31;5080356;28;19924;-73
2022/04/08 10:23:35;;;;;;;;;;;;;;;10.99;100.00;96416.41;5076937;28;19920;-73
2022/04/08 10:26:04;;;;;;;;;;;;;;;11.03;100.00;96406.69;5074619;28;20333;-73
2022/04/08 10:28:34;;;;;;;;;;;;;;;10.94;100.00;96413.84;5077029;28;19924;-72
2022/04/08 10:31:01;;;;;;;;;;;;;;;10.80;100.00;96410.41;5078939;28;19936;-73
2022/04/08 10:33:29;;;;;;;;;;;;;;;10.58;100.00;96408.50;5077392;28;19924;-74
2022/04/08 10:35:56;;;;;;;;;;;;;;;10.65;100.00;96390.19;5074411;28;19925;-74
2022/04/08 10:38:23;;;;;;;;;;;;;;;10.47;100.00;96403.66;5075733;28;19932;-74
2022/04/08 10:40:53;;;;;;;;;;;;;;;10.47;100.00;96393.78;5077467;28;19951;-73
2022/04/08 10:43:19;;;;;;;;;;;;;;;10.31;100.00;96389.81;5070562;28;19960;-73
2022/04/08 10:45:53;;;;;;;;;;;;;;;10.41;100.00;96383.50;5066947;28;19925;-74
2022/04/08 10:48:19;;;;;;;;;;;;;;;10.53;100.00;96368.56;5075113;28;20000;-74
2022/04/08 10:50:47;;;;;;;;;;;;;;;10.67;100.00;96365.88;5067277;28;19921;-75
2022/04/08 10:53:14;;;;;;;;;;;;;;;10.98;100.00;96350.75;5073740;28;19935;-74
2022/04/08 10:55:47;;;;;;;;;;;;;;;11.11;100.00;96352.53;5078006;28;20053;-73
2022/04/08 10:58:15;;;;;;;;;;;;;;;11.18;100.00;96349.44;5077352;28;19947;-75
2022/04/08 11:00:42;;;;;;;;;;;;;;;10.95;100.00;96332.66;5074167;28;19971;-73
2022/04/08 11:03:10;;;;;;;;;;;;;;;10.86;100.00;96333.66;5076856;28;19948;-74
2022/04/08 11:05:36;;;;;;;;;;;;;;;10.81;100.00;96330.03;5078917;28;20047;-75
2022/04/08 11:08:05;;;;;;;;;;;;;;;10.47;100.00;96324.38;5079739;28;19929;-74
2022/04/08 11:10:32;;;;;;;;;;;;;;;10.84;100.00;96310.72;5077636;28;19963;-75
2022/04/08 11:12:59;;;;;;;;;;;;;;;10.99;100.00;96314.91;5070353;28;19987;-75
2022/04/08 11:15:27;;;;;;;;;;;;;;;10.70;100.00;96302.00;5076172;28;20361;-75
2022/04/08 11:17:54;;;;;;;;;;;;;;;10.61;100.00;96293.13;5077502;28;20028;-75
2022/04/08 11:20:21;;;;;;;;;;;;;;;11.05;100.00;96280.88;5079147;28;19924;-77
2022/04/08 11:22:49;;;;;;;;;;;;;;;10.77;100.00;96280.97;5066019;28;19925;-75
2022/04/08 11:25:22;;;;;;;;;;;;;;;10.84;100.00;96284.03;5075154;28;19925;-76
2022/04/08 11:27:57;;;;;;;;;;;;;;;10.93;100.00;96272.59;5066767;28;19929;-76
2022/04/08 11:30:24;;;;;;;;;;;;;;;11.02;100.00;96268.09;5075136;28;19967;-75
2022/04/08 11:32:51;;;;;;;;;;;;;;;10.71;100.00;96260.81;5077965;28;19920;-75
2022/04/08 11:35:17;;;;;;;;;;;;;;;10.50;100.00;96259.72;5078081;28;19992;-75
2022/04/08 11:37:43;;;;;;;;;;;;;;;10.83;100.00;96257.63;5074976;28;19979;-75
2022/04/08 11:40:16;;;;;;;;;;;;;;;10.84;100.00;96254.66;5074473;28;20011;-75
2022/04/08 11:42:46;;;;;;;;;;;;;;;10.48;100.00;96240.56;5073722;28;21423;-76
2022/04/08 11:45:13;;;;;;;;;;;;;;;10.71;100.00;96238.69;5073332;28;20286;-75
2022/04/08 11:47:45;;;;;;;;;;;;;;;10.48;100.00;96245.91;5075604;28;19929;-77
2022/04/08 11:50:12;;;;;;;;;;;;;;;10.32;100.00;96230.53;5076649;28;19956;-76
2022/04/08 11:52:39;;;;;;;;;;;;;;;10.45;100.00;96227.84;5074026;28;19928;-75
2022/04/08 11:55:06;;;;;;;;;;;;;;;10.25;100.00;96220.28;5075766;28;19931;-75
2022/04/08 11:57:34;;;;;;;;;;;;;;;10.28;100.00;96219.69;5075764;28;19924;-75
2022/04/08 12:00:05;;;;;;;;;;;;;;;10.54;100.00;96210.00;5077011;28;19924;-76
2022/04/08 12:02:32;;;;;;;;;;;;;;;10.27;100.00;96194.13;5076522;28;19929;-76
2022/04/08 12:04:58;;;;;;;;;;;;;;;10.38;100.00;96194.66;5074303;28;19924;-76
2022/04/08 12:07:25;;;;;;;;;;;;;;;10.51;100.00;96193.81;5073182;28;19925;-76
2022/04/08 12:09:52;;;;;;;;;;;;;;;10.71;100.00;96183.41;5077545;28;19986;-76
2022/04/08 12:12:22;;;;;;;;;;;;;;;10.58;100.00;96173.63;5071534;28;19925;-76
2022/04/08 12:14:49;;;;;;;;;;;;;;;10.73;100.00;96177.78;5064712;28;20015;-75
2022/04/08 12:17:17;;;;;;;;;;;;;;;10.52;100.00;96164.13;5074085;28;19992;-75
2022/04/08 12:19:43;;;;;;;;;;;;;;;10.46;100.00;96164.59;5075713;28;19925;-76
2022/04/08 12:22:10;;;;;;;;;;;;;;;10.27;100.00;96162.09;5077484;28;19996;-76
2022/04/08 12:24:39;;;;;;;;;;;;;;;10.05;100.00;96156.72;5073687;28;20257;-76
2022/04/08 12:27:10;;;;;;;;;;;;;;;9.97;100.00;96154.75;5072735;28;20291;-76
2022/04/08 12:29:39;;;;;;;;;;;;;;;9.96;100.00;96147.84;5074830;28;20326;-76
2022/04/08 12:32:12;;;;;;;;;;;;;;;10.22;100.00;96139.00;5077425;28;19974;-76
2022/04/08 12:34:39;;;;;;;;;;;;;;;10.10;100.00;96129.91;5074964;28;20305;-76
2022/04/08 12:37:06;;;;;;;;;;;;;;;10.11;100.00;96128.84;5073095;28;19980;-75
2022/04/08 12:39:32;;;;;;;;;;;;;;;9.86;100.00;96122.22;5075388;28;19925;-76
2022/04/08 12:41:59;;;;;;;;;;;;;;;10.13;100.00;96113.31;5074259;28;19955;-77
2022/04/08 12:44:26;;;;;;;;;;;;;;;10.13;100.00;96102.63;5073792;28;19924;-76